ドバイ の空港の天気 - METARとTAF

ドバイ国際空港 ( OMDB / DXB ) - アラブ首長国連邦 ドバイ
飛行場実況気象(Metar)
観測時間01/21 22:00 GST (01/21 18:00 UTC)
風向・風速西 4m/s
視程10km以上
天気現象
なし
気温20℃
湿度53%
気圧1018hPa
METAROMDB 211800Z 27008KT CAVOK 20/10 Q1018 NOSIG
過去の天気等 Google飛行場航空写真 Wunderground天気予報

過去48時間のMETAR

飛行場予報(TAF)
発表時間: 1/21 21:01 GST (1/21 17:01 UTC)
予報対象時間: 21日22時 GST ~ 23日4時 GST
風向・風速西 5m/s
視程10km以上
少しの雲 雲底高度 1,220m
22日2時 GST ~ 22日4時 GST に徐々に
風向・風速南南西 3m/s
22日13時 GST ~ 22日15時 GST に徐々に
風向・風速北北西 6m/s
22日19時 GST ~ 22日21時 GST に徐々に
風向・風速東 3m/s
TAF OMDB 211701Z 2118/2300 28010KT 9999 FEW040
BECMG 2122/2200 20005KT
BECMG 2209/2211 33012KT
BECMG 2215/2217 08005KT